sensor_id;sensor_type;location;lat;lon;timestamp;temperature;humidity
55648;DHT22;45266;48.756;9.246;2022-11-20T00:00:55;5.30;99.90
55648;DHT22;45266;48.756;9.246;2022-11-20T00:01:57;5.30;99.90
55648;DHT22;45266;48.756;9.246;2022-11-20T00:02:59;5.30;99.90
55648;DHT22;45266;48.756;9.246;2022-11-20T00:04:01;5.30;99.90
55648;DHT22;45266;48.756;9.246;2022-11-20T00:05:03;5.20;99.90
55648;DHT22;45266;48.756;9.246;2022-11-20T00:06:07;5.20;99.90
55648;DHT22;45266;48.756;9.246;2022-11-20T00:07:10;5.20;99.90
55648;DHT22;45266;48.756;9.246;2022-11-20T00:08:12;5.20;99.90
55648;DHT22;45266;48.756;9.246;2022-11-20T00:09:14;5.20;99.90
55648;DHT22;45266;48.756;9.246;2022-11-20T00:10:16;5.20;99.90
55648;DHT22;45266;48.756;9.246;2022-11-20T00:11:20;5.20;99.90
55648;DHT22;45266;48.756;9.246;2022-11-20T00:12:22;5.10;99.90
55648;DHT22;45266;48.756;9.246;2022-11-20T00:13:23;5.10;99.90
55648;DHT22;45266;48.756;9.246;2022-11-20T00:14:25;5.10;99.90
55648;DHT22;45266;48.756;9.246;2022-11-20T00:15:27;5.10;99.90
55648;DHT22;45266;48.756;9.246;2022-11-20T00:16:32;5.10;99.90
55648;DHT22;45266;48.756;9.246;2022-11-20T00:17:34;5.10;99.90
55648;DHT22;45266;48.756;9.246;2022-11-20T00:18:36;5.10;99.90
55648;DHT22;45266;48.756;9.246;2022-11-20T00:19:38;5.10;99.90
55648;DHT22;45266;48.756;9.246;2022-11-20T00:20:40;5.10;99.90
55648;DHT22;45266;48.756;9.246;2022-11-20T00:21:41;5.10;99.90
55648;DHT22;45266;48.756;9.246;2022-11-20T00:22:43;5.10;99.90
55648;DHT22;45266;48.756;9.246;2022-11-20T00:23:45;5.10;99.90
55648;DHT22;45266;48.756;9.246;2022-11-20T00:24:47;5.10;99.90
55648;DHT22;45266;48.756;9.246;2022-11-20T00:25:49;5.10;99.90
55648;DHT22;45266;48.756;9.246;2022-11-20T00:26:51;5.10;99.90
55648;DHT22;45266;48.756;9.246;2022-11-20T00:27:53;5.00;99.90
55648;DHT22;45266;48.756;9.246;2022-11-20T00:29:00;5.00;99.90
55648;DHT22;45266;48.756;9.246;2022-11-20T00:30:03;5.10;99.90
55648;DHT22;45266;48.756;9.246;2022-11-20T00:31:11;5.10;99.90
55648;DHT22;45266;48.756;9.246;2022-11-20T00:32:13;5.00;99.90
55648;DHT22;45266;48.756;9.246;2022-11-20T00:33:15;5.00;99.90
55648;DHT22;45266;48.756;9.246;2022-11-20T00:34:17;5.00;99.90
55648;DHT22;45266;48.756;9.246;2022-11-20T00:35:19;5.00;99.90
55648;DHT22;45266;48.756;9.246;2022-11-20T00:36:24;5.00;99.90
55648;DHT22;45266;48.756;9.246;2022-11-20T00:37:26;5.00;99.90
55648;DHT22;45266;48.756;9.246;2022-11-20T00:38:28;5.00;99.90
55648;DHT22;45266;48.756;9.246;2022-11-20T00:39:30;5.10;99.90
55648;DHT22;45266;48.756;9.246;2022-11-20T00:40:32;5.10;99.90
55648;DHT22;45266;48.756;9.246;2022-11-20T00:41:34;5.10;99.90
55648;DHT22;45266;48.756;9.246;2022-11-20T00:42:35;5.10;99.90
55648;DHT22;45266;48.756;9.246;2022-11-20T00:43:38;5.10;99.90
55648;DHT22;45266;48.756;9.246;2022-11-20T00:44:40;5.10;99.90
55648;DHT22;45266;48.756;9.246;2022-11-20T00:45:42;5.10;99.90
55648;DHT22;45266;48.756;9.246;2022-11-20T00:46:44;5.10;99.90
55648;DHT22;45266;48.756;9.246;2022-11-20T00:47:46;5.10;99.90
55648;DHT22;45266;48.756;9.246;2022-11-20T00:48:48;5.00;99.90
55648;DHT22;45266;48.756;9.246;2022-11-20T00:49:53;5.10;99.90
55648;DHT22;45266;48.756;9.246;2022-11-20T00:50:55;5.10;99.90
55648;DHT22;45266;48.756;9.246;2022-11-20T00:51:57;5.00;99.90
55648;DHT22;45266;48.756;9.246;2022-11-20T00:52:59;5.00;99.90
55648;DHT22;45266;48.756;9.246;2022-11-20T00:54:01;5.00;99.90
55648;DHT22;45266;48.756;9.246;2022-11-20T00:55:03;5.00;99.90
55648;DHT22;45266;48.756;9.246;2022-11-20T00:56:09;5.00;99.90
55648;DHT22;45266;48.756;9.246;2022-11-20T00:57:11;4.90;99.90
55648;DHT22;45266;48.756;9.246;2022-11-20T00:58:13;5.00;99.90
55648;DHT22;45266;48.756;9.246;2022-11-20T00:59:15;5.00;99.90
55648;DHT22;45266;48.756;9.246;2022-11-20T01:00:17;5.00;99.90
55648;DHT22;45266;48.756;9.246;2022-11-20T01:01:24;5.00;99.90
55648;DHT22;45266;48.756;9.246;2022-11-20T01:02:26;5.00;99.90
55648;DHT22;45266;48.756;9.246;2022-11-20T01:03:31;5.00;99.90
55648;DHT22;45266;48.756;9.246;2022-11-20T01:04:33;5.00;99.90
55648;DHT22;45266;48.756;9.246;2022-11-20T01:05:35;5.00;99.90
55648;DHT22;45266;48.756;9.246;2022-11-20T01:06:39;5.00;99.90
55648;DHT22;45266;48.756;9.246;2022-11-20T01:07:40;5.00;99.90
55648;DHT22;45266;48.756;9.246;2022-11-20T01:08:43;5.00;99.90
55648;DHT22;45266;48.756;9.246;2022-11-20T01:09:45;5.00;99.90
55648;DHT22;45266;48.756;9.246;2022-11-20T01:10:47;5.00;99.90
55648;DHT22;45266;48.756;9.246;2022-11-20T01:11:49;5.00;99.90
55648;DHT22;45266;48.756;9.246;2022-11-20T01:12:50;5.10;99.90
55648;DHT22;45266;48.756;9.246;2022-11-20T01:14:18;5.10;99.90
55648;DHT22;45266;48.756;9.246;2022-11-20T01:15:20;5.10;99.90
55648;DHT22;45266;48.756;9.246;2022-11-20T01:17:34;5.10;99.90
55648;DHT22;45266;48.756;9.246;2022-11-20T01:18:37;5.10;99.90
55648;DHT22;45266;48.756;9.246;2022-11-20T01:19:40;5.10;99.90
55648;DHT22;45266;48.756;9.246;2022-11-20T01:20:41;5.10;99.90
55648;DHT22;45266;48.756;9.246;2022-11-20T01:21:45;5.10;99.90
55648;DHT22;45266;48.756;9.246;2022-11-20T01:22:47;5.10;99.90
55648;DHT22;45266;48.756;9.246;2022-11-20T01:23:49;5.10;99.90
55648;DHT22;45266;48.756;9.246;2022-11-20T01:24:51;5.10;99.90
55648;DHT22;45266;48.756;9.246;2022-11-20T01:25:53;5.00;99.90
55648;DHT22;45266;48.756;9.246;2022-11-20T01:26:55;5.10;99.90
55648;DHT22;45266;48.756;9.246;2022-11-20T01:27:57;5.10;99.90
55648;DHT22;45266;48.756;9.246;2022-11-20T01:28:59;5.20;99.90
55648;DHT22;45266;48.756;9.246;2022-11-20T01:30:01;5.10;99.90
55648;DHT22;45266;48.756;9.246;2022-11-20T01:31:14;5.10;99.90
55648;DHT22;45266;48.756;9.246;2022-11-20T01:32:16;5.20;99.90
55648;DHT22;45266;48.756;9.246;2022-11-20T01:33:18;5.20;99.90
55648;DHT22;45266;48.756;9.246;2022-11-20T01:34:21;5.20;99.90
55648;DHT22;45266;48.756;9.246;2022-11-20T01:35:23;5.20;99.90
55648;DHT22;45266;48.756;9.246;2022-11-20T01:36:27;5.20;99.90
55648;DHT22;45266;48.756;9.246;2022-11-20T01:37:29;5.20;99.90
55648;DHT22;45266;48.756;9.246;2022-11-20T01:38:31;5.30;99.90
55648;DHT22;45266;48.756;9.246;2022-11-20T01:39:33;5.20;99.90
55648;DHT22;45266;48.756;9.246;2022-11-20T01:40:35;5.20;99.90
55648;DHT22;45266;48.756;9.246;2022-11-20T01:41:37;5.20;99.90
55648;DHT22;45266;48.756;9.246;2022-11-20T01:43:13;5.20;99.90
55648;DHT22;45266;48.756;9.246;2022-11-20T01:45:00;5.20;99.90
55648;DHT22;45266;48.756;9.246;2022-11-20T01:46:15;5.20;99.90
55648;DHT22;45266;48.756;9.246;2022-11-20T01:47:43;5.20;99.90
55648;DHT22;45266;48.756;9.246;2022-11-20T01:49:00;5.20;99.90
55648;DHT22;45266;48.756;9.246;2022-11-20T01:50:13;5.20;99.90
55648;DHT22;45266;48.756;9.246;2022-11-20T01:52:24;5.20;99.90
55648;DHT22;45266;48.756;9.246;2022-11-20T01:53:32;5.10;99.90
55648;DHT22;45266;48.756;9.246;2022-11-20T01:54:52;5.20;99.90
55648;DHT22;45266;48.756;9.246;2022-11-20T01:56:00;5.10;99.90
55648;DHT22;45266;48.756;9.246;2022-11-20T01:57:03;5.10;99.90
55648;DHT22;45266;48.756;9.246;2022-11-20T01:58:06;5.10;99.90
55648;DHT22;45266;48.756;9.246;2022-11-20T01:59:09;5.10;99.90
55648;DHT22;45266;48.756;9.246;2022-11-20T02:00:14;5.10;99.90
55648;DHT22;45266;48.756;9.246;2022-11-20T02:01:17;5.10;99.90
55648;DHT22;45266;48.756;9.246;2022-11-20T02:02:20;5.10;99.90
55648;DHT22;45266;48.756;9.246;2022-11-20T02:03:22;5.00;99.90
55648;DHT22;45266;48.756;9.246;2022-11-20T02:04:25;5.00;99.90
55648;DHT22;45266;48.756;9.246;2022-11-20T02:06:42;5.00;99.90
55648;DHT22;45266;48.756;9.246;2022-11-20T02:07:46;5.00;99.90
55648;DHT22;45266;48.756;9.246;2022-11-20T02:08:48;5.00;99.90
55648;DHT22;45266;48.756;9.246;2022-11-20T02:09:51;5.00;99.90
55648;DHT22;45266;48.756;9.246;2022-11-20T02:10:59;4.90;99.90
55648;DHT22;45266;48.756;9.246;2022-11-20T02:12:00;4.90;99.90
55648;DHT22;45266;48.756;9.246;2022-11-20T02:13:03;4.90;99.90
55648;DHT22;45266;48.756;9.246;2022-11-20T02:14:24;4.90;99.90
55648;DHT22;45266;48.756;9.246;2022-11-20T02:15:26;4.80;99.90
55648;DHT22;45266;48.756;9.246;2022-11-20T02:16:35;4.80;99.90
55648;DHT22;45266;48.756;9.246;2022-11-20T02:17:37;4.80;99.90
55648;DHT22;45266;48.756;9.246;2022-11-20T02:18:40;4.80;99.90
55648;DHT22;45266;48.756;9.246;2022-11-20T02:19:42;4.80;99.90
55648;DHT22;45266;48.756;9.246;2022-11-20T02:20:47;4.80;99.90
55648;DHT22;45266;48.756;9.246;2022-11-20T02:22:09;4.90;99.90
55648;DHT22;45266;48.756;9.246;2022-11-20T02:23:39;4.80;99.90
55648;DHT22;45266;48.756;9.246;2022-11-20T02:24:42;4.80;99.90
55648;DHT22;45266;48.756;9.246;2022-11-20T02:25:46;4.80;99.90
55648;DHT22;45266;48.756;9.246;2022-11-20T02:27:03;4.80;99.90
55648;DHT22;45266;48.756;9.246;2022-11-20T02:28:06;4.80;99.90
55648;DHT22;45266;48.756;9.246;2022-11-20T02:29:08;4.80;99.90
55648;DHT22;45266;48.756;9.246;2022-11-20T02:30:10;4.80;99.90
55648;DHT22;45266;48.756;9.246;2022-11-20T02:31:12;4.80;99.90
55648;DHT22;45266;48.756;9.246;2022-11-20T02:32:25;4.80;99.90
55648;DHT22;45266;48.756;9.246;2022-11-20T02:33:28;4.80;99.90
55648;DHT22;45266;48.756;9.246;2022-11-20T02:34:29;4.80;99.90
55648;DHT22;45266;48.756;9.246;2022-11-20T02:36:34;4.80;99.90
55648;DHT22;45266;48.756;9.246;2022-11-20T02:37:39;4.90;99.90
55648;DHT22;45266;48.756;9.246;2022-11-20T02:38:43;4.80;99.90
55648;DHT22;45266;48.756;9.246;2022-11-20T02:39:50;4.80;99.90
55648;DHT22;45266;48.756;9.246;2022-11-20T02:40:52;4.80;99.90
55648;DHT22;45266;48.756;9.246;2022-11-20T02:41:56;4.80;99.90
55648;DHT22;45266;48.756;9.246;2022-11-20T02:42:58;4.80;99.90
55648;DHT22;45266;48.756;9.246;2022-11-20T02:44:00;4.80;99.90
55648;DHT22;45266;48.756;9.246;2022-11-20T02:45:03;4.80;99.90
55648;DHT22;45266;48.756;9.246;2022-11-20T02:46:07;4.80;99.90
55648;DHT22;45266;48.756;9.246;2022-11-20T02:47:09;4.90;99.90
55648;DHT22;45266;48.756;9.246;2022-11-20T02:48:11;4.80;99.90
55648;DHT22;45266;48.756;9.246;2022-11-20T02:49:13;4.80;99.90
55648;DHT22;45266;48.756;9.246;2022-11-20T02:50:15;4.80;99.90
55648;DHT22;45266;48.756;9.246;2022-11-20T02:51:16;4.80;99.90
55648;DHT22;45266;48.756;9.246;2022-11-20T02:52:18;4.80;99.90
55648;DHT22;45266;48.756;9.246;2022-11-20T02:53:20;4.80;99.90
55648;DHT22;45266;48.756;9.246;2022-11-20T02:54:22;4.80;99.90
55648;DHT22;45266;48.756;9.246;2022-11-20T02:55:24;4.80;99.90
55648;DHT22;45266;48.756;9.246;2022-11-20T02:56:26;4.90;99.90
55648;DHT22;45266;48.756;9.246;2022-11-20T02:57:28;4.80;99.90
55648;DHT22;45266;48.756;9.246;2022-11-20T02:58:30;4.80;99.90
55648;DHT22;45266;48.756;9.246;2022-11-20T02:59:32;4.80;99.90
55648;DHT22;45266;48.756;9.246;2022-11-20T03:00:34;4.70;99.90
55648;DHT22;45266;48.756;9.246;2022-11-20T03:01:36;4.80;99.90
55648;DHT22;45266;48.756;9.246;2022-11-20T03:02:38;4.80;99.90
55648;DHT22;45266;48.756;9.246;2022-11-20T03:03:40;4.80;99.90
55648;DHT22;45266;48.756;9.246;2022-11-20T03:04:42;4.80;99.90
55648;DHT22;45266;48.756;9.246;2022-11-20T03:05:44;4.80;99.90
55648;DHT22;45266;48.756;9.246;2022-11-20T03:06:45;4.70;99.90
55648;DHT22;45266;48.756;9.246;2022-11-20T03:07:47;4.70;99.90
55648;DHT22;45266;48.756;9.246;2022-11-20T03:08:49;4.70;99.90
55648;DHT22;45266;48.756;9.246;2022-11-20T03:09:51;4.70;99.90
55648;DHT22;45266;48.756;9.246;2022-11-20T03:10:52;4.80;99.90
55648;DHT22;45266;48.756;9.246;2022-11-20T03:11:54;4.90;99.90
55648;DHT22;45266;48.756;9.246;2022-11-20T03:12:57;4.80;99.90
55648;DHT22;45266;48.756;9.246;2022-11-20T03:14:02;4.80;99.90
55648;DHT22;45266;48.756;9.246;2022-11-20T03:15:05;4.80;99.90
55648;DHT22;45266;48.756;9.246;2022-11-20T03:16:09;4.80;99.90
55648;DHT22;45266;48.756;9.246;2022-11-20T03:17:11;4.80;99.90
55648;DHT22;45266;48.756;9.246;2022-11-20T03:18:13;4.80;99.90
55648;DHT22;45266;48.756;9.246;2022-11-20T03:19:16;4.80;99.90
55648;DHT22;45266;48.756;9.246;2022-11-20T03:20:18;4.80;99.90
55648;DHT22;45266;48.756;9.246;2022-11-20T03:21:20;4.80;99.90
55648;DHT22;45266;48.756;9.246;2022-11-20T03:22:21;4.80;99.90
55648;DHT22;45266;48.756;9.246;2022-11-20T03:23:23;4.80;99.90
55648;DHT22;45266;48.756;9.246;2022-11-20T03:24:25;4.80;99.90
55648;DHT22;45266;48.756;9.246;2022-11-20T03:25:27;4.80;99.90
55648;DHT22;45266;48.756;9.246;2022-11-20T03:26:29;4.80;99.90
55648;DHT22;45266;48.756;9.246;2022-11-20T03:27:34;4.90;99.90
55648;DHT22;45266;48.756;9.246;2022-11-20T03:28:36;4.90;99.90
55648;DHT22;45266;48.756;9.246;2022-11-20T03:29:38;4.90;99.90
55648;DHT22;45266;48.756;9.246;2022-11-20T03:30:40;4.90;99.90
55648;DHT22;45266;48.756;9.246;2022-11-20T03:31:42;4.90;99.90
55648;DHT22;45266;48.756;9.246;2022-11-20T03:32:44;4.90;99.90
55648;DHT22;45266;48.756;9.246;2022-11-20T03:33:46;4.90;99.90
55648;DHT22;45266;48.756;9.246;2022-11-20T03:34:48;4.90;99.90
55648;DHT22;45266;48.756;9.246;2022-11-20T03:35:50;4.90;99.90
55648;DHT22;45266;48.756;9.246;2022-11-20T03:36:52;4.90;99.90
55648;DHT22;45266;48.756;9.246;2022-11-20T03:37:54;4.80;99.90
55648;DHT22;45266;48.756;9.246;2022-11-20T03:38:56;4.90;99.90
55648;DHT22;45266;48.756;9.246;2022-11-20T03:39:58;4.90;99.90
55648;DHT22;45266;48.756;9.246;2022-11-20T03:41:20;4.90;99.90
55648;DHT22;45266;48.756;9.246;2022-11-20T03:42:22;4.90;99.90
55648;DHT22;45266;48.756;9.246;2022-11-20T03:43:46;4.90;99.90
55648;DHT22;45266;48.756;9.246;2022-11-20T03:44:48;4.90;99.90
55648;DHT22;45266;48.756;9.246;2022-11-20T03:45:49;4.80;99.90
55648;DHT22;45266;48.756;9.246;2022-11-20T03:46:51;4.90;99.90
55648;DHT22;45266;48.756;9.246;2022-11-20T03:47:53;4.90;99.90
55648;DHT22;45266;48.756;9.246;2022-11-20T03:48:55;4.90;99.90
55648;DHT22;45266;48.756;9.246;2022-11-20T03:49:57;4.90;99.90
55648;DHT22;45266;48.756;9.246;2022-11-20T03:51:16;4.80;99.90
55648;DHT22;45266;48.756;9.246;2022-11-20T03:52:18;4.80;99.90
55648;DHT22;45266;48.756;9.246;2022-11-20T03:53:20;4.70;99.90
55648;DHT22;45266;48.756;9.246;2022-11-20T03:54:22;4.70;99.90
55648;DHT22;45266;48.756;9.246;2022-11-20T03:55:24;4.70;99.90
55648;DHT22;45266;48.756;9.246;2022-11-20T03:56:30;4.60;99.90
55648;DHT22;45266;48.756;9.246;2022-11-20T03:57:32;4.60;99.90
55648;DHT22;45266;48.756;9.246;2022-11-20T03:58:35;4.60;99.90
55648;DHT22;45266;48.756;9.246;2022-11-20T03:59:44;4.60;99.90
55648;DHT22;45266;48.756;9.246;2022-11-20T04:00:45;4.60;99.90
55648;DHT22;45266;48.756;9.246;2022-11-20T04:01:47;4.60;99.90
55648;DHT22;45266;48.756;9.246;2022-11-20T04:02:50;4.60;99.90
55648;DHT22;45266;48.756;9.246;2022-11-20T04:03:53;4.50;99.90
55648;DHT22;45266;48.756;9.246;2022-11-20T04:04:55;4.50;99.90
55648;DHT22;45266;48.756;9.246;2022-11-20T04:06:08;4.50;99.90
55648;DHT22;45266;48.756;9.246;2022-11-20T04:07:10;4.40;99.90
55648;DHT22;45266;48.756;9.246;2022-11-20T04:08:12;4.40;99.90
55648;DHT22;45266;48.756;9.246;2022-11-20T04:09:14;4.40;99.90
55648;DHT22;45266;48.756;9.246;2022-11-20T04:10:17;4.40;99.90
55648;DHT22;45266;48.756;9.246;2022-11-20T04:11:24;4.30;99.90
55648;DHT22;45266;48.756;9.246;2022-11-20T04:12:26;4.30;99.90
55648;DHT22;45266;48.756;9.246;2022-11-20T04:13:28;4.30;99.90
55648;DHT22;45266;48.756;9.246;2022-11-20T04:14:30;4.30;99.90
55648;DHT22;45266;48.756;9.246;2022-11-20T04:15:32;4.30;99.90
55648;DHT22;45266;48.756;9.246;2022-11-20T04:16:39;4.30;99.90
55648;DHT22;45266;48.756;9.246;2022-11-20T04:17:40;4.30;99.90
55648;DHT22;45266;48.756;9.246;2022-11-20T04:18:43;4.20;99.90
55648;DHT22;45266;48.756;9.246;2022-11-20T04:19:44;4.40;99.90
55648;DHT22;45266;48.756;9.246;2022-11-20T04:20:46;4.30;99.90
55648;DHT22;45266;48.756;9.246;2022-11-20T04:21:48;4.20;99.90
55648;DHT22;45266;48.756;9.246;2022-11-20T04:22:53;4.20;99.90
55648;DHT22;45266;48.756;9.246;2022-11-20T04:23:55;4.20;99.90
55648;DHT22;45266;48.756;9.246;2022-11-20T04:24:57;4.20;99.90
55648;DHT22;45266;48.756;9.246;2022-11-20T04:26:04;4.10;99.90
55648;DHT22;45266;48.756;9.246;2022-11-20T04:27:06;4.20;99.90
55648;DHT22;45266;48.756;9.246;2022-11-20T04:28:08;4.20;99.90
55648;DHT22;45266;48.756;9.246;2022-11-20T04:29:12;4.20;99.90
55648;DHT22;45266;48.756;9.246;2022-11-20T04:30:14;4.20;99.90
55648;DHT22;45266;48.756;9.246;2022-11-20T04:31:18;4.20;99.90
55648;DHT22;45266;48.756;9.246;2022-11-20T04:32:20;4.30;99.90
55648;DHT22;45266;48.756;9.246;2022-11-20T04:33:22;4.20;99.90
55648;DHT22;45266;48.756;9.246;2022-11-20T04:34:24;4.20;99.90
55648;DHT22;45266;48.756;9.246;2022-11-20T04:35:26;4.20;99.90
55648;DHT22;45266;48.756;9.246;2022-11-20T04:36:28;4.20;99.90
55648;DHT22;45266;48.756;9.246;2022-11-20T04:37:30;4.20;99.90
55648;DHT22;45266;48.756;9.246;2022-11-20T04:38:32;4.30;99.90
55648;DHT22;45266;48.756;9.246;2022-11-20T04:39:34;4.20;99.90
55648;DHT22;45266;48.756;9.246;2022-11-20T04:40:36;4.20;99.90
55648;DHT22;45266;48.756;9.246;2022-11-20T04:41:38;4.10;99.90
55648;DHT22;45266;48.756;9.246;2022-11-20T04:42:40;4.10;99.90
55648;DHT22;45266;48.756;9.246;2022-11-20T04:43:45;4.20;99.90
55648;DHT22;45266;48.756;9.246;2022-11-20T04:44:47;4.10;99.90
55648;DHT22;45266;48.756;9.246;2022-11-20T04:45:53;4.10;99.90
55648;DHT22;45266;48.756;9.246;2022-11-20T04:46:55;4.10;99.90
55648;DHT22;45266;48.756;9.246;2022-11-20T04:47:57;4.20;99.90
55648;DHT22;45266;48.756;9.246;2022-11-20T04:48:59;4.10;99.90
55648;DHT22;45266;48.756;9.246;2022-11-20T04:50:01;4.10;99.90
55648;DHT22;45266;48.756;9.246;2022-11-20T04:51:03;4.20;99.90
55648;DHT22;45266;48.756;9.246;2022-11-20T04:52:05;4.10;99.90
55648;DHT22;45266;48.756;9.246;2022-11-20T04:53:08;4.10;99.90
55648;DHT22;45266;48.756;9.246;2022-11-20T04:54:11;4.10;99.90
55648;DHT22;45266;48.756;9.246;2022-11-20T04:55:13;4.10;99.90
55648;DHT22;45266;48.756;9.246;2022-11-20T04:56:15;4.10;99.90
55648;DHT22;45266;48.756;9.246;2022-11-20T04:57:17;4.20;99.90
55648;DHT22;45266;48.756;9.246;2022-11-20T04:58:19;4.20;99.90
55648;DHT22;45266;48.756;9.246;2022-11-20T04:59:20;4.10;99.90
55648;DHT22;45266;48.756;9.246;2022-11-20T05:00:23;4.20;99.90
55648;DHT22;45266;48.756;9.246;2022-11-20T05:01:25;4.20;99.90
55648;DHT22;45266;48.756;9.246;2022-11-20T05:02:27;4.20;99.90
55648;DHT22;45266;48.756;9.246;2022-11-20T05:03:29;4.20;99.90
55648;DHT22;45266;48.756;9.246;2022-11-20T05:04:31;4.30;99.90
55648;DHT22;45266;48.756;9.246;2022-11-20T05:05:35;4.30;99.90
55648;DHT22;45266;48.756;9.246;2022-11-20T05:06:38;4.30;99.90
55648;DHT22;45266;48.756;9.246;2022-11-20T05:07:39;4.30;99.90
55648;DHT22;45266;48.756;9.246;2022-11-20T05:08:41;4.30;99.90
55648;DHT22;45266;48.756;9.246;2022-11-20T05:09:44;4.40;99.90
55648;DHT22;45266;48.756;9.246;2022-11-20T05:10:45;4.30;99.90
55648;DHT22;45266;48.756;9.246;2022-11-20T05:11:47;4.40;99.90
55648;DHT22;45266;48.756;9.246;2022-11-20T05:12:52;4.30;99.90
55648;DHT22;45266;48.756;9.246;2022-11-20T05:13:54;4.30;99.90
55648;DHT22;45266;48.756;9.246;2022-11-20T05:14:56;4.30;99.90
55648;DHT22;45266;48.756;9.246;2022-11-20T05:16:16;4.30;99.90
55648;DHT22;45266;48.756;9.246;2022-11-20T05:17:19;4.30;99.90
55648;DHT22;45266;48.756;9.246;2022-11-20T05:18:21;4.30;99.90
55648;DHT22;45266;48.756;9.246;2022-11-20T05:19:23;4.30;99.90
55648;DHT22;45266;48.756;9.246;2022-11-20T05:20:24;4.40;99.90
55648;DHT22;45266;48.756;9.246;2022-11-20T05:21:26;4.40;99.90
55648;DHT22;45266;48.756;9.246;2022-11-20T05:22:29;4.40;99.90
55648;DHT22;45266;48.756;9.246;2022-11-20T05:23:32;4.40;99.90
55648;DHT22;45266;48.756;9.246;2022-11-20T05:24:34;4.40;99.90
55648;DHT22;45266;48.756;9.246;2022-11-20T05:25:36;4.40;99.90
55648;DHT22;45266;48.756;9.246;2022-11-20T05:26:38;4.40;99.90
55648;DHT22;45266;48.756;9.246;2022-11-20T05:27:40;4.40;99.90
55648;DHT22;45266;48.756;9.246;2022-11-20T05:28:41;4.40;99.90
55648;DHT22;45266;48.756;9.246;2022-11-20T05:29:43;4.40;99.90
55648;DHT22;45266;48.756;9.246;2022-11-20T05:30:45;4.50;99.90
55648;DHT22;45266;48.756;9.246;2022-11-20T05:31:47;4.50;99.90
55648;DHT22;45266;48.756;9.246;2022-11-20T05:32:48;4.50;99.90
55648;DHT22;45266;48.756;9.246;2022-11-20T05:33:50;4.50;99.90
55648;DHT22;45266;48.756;9.246;2022-11-20T05:34:52;4.50;99.90
55648;DHT22;45266;48.756;9.246;2022-11-20T05:35:58;4.60;99.90
55648;DHT22;45266;48.756;9.246;2022-11-20T05:37:00;4.50;99.90
55648;DHT22;45266;48.756;9.246;2022-11-20T05:38:02;4.60;99.90
55648;DHT22;45266;48.756;9.246;2022-11-20T05:39:03;4.60;99.90
55648;DHT22;45266;48.756;9.246;2022-11-20T05:40:06;4.60;99.90
55648;DHT22;45266;48.756;9.246;2022-11-20T05:41:11;4.60;99.90
55648;DHT22;45266;48.756;9.246;2022-11-20T05:42:13;4.60;99.90
55648;DHT22;45266;48.756;9.246;2022-11-20T05:43:37;4.60;99.90
55648;DHT22;45266;48.756;9.246;2022-11-20T05:44:39;4.60;99.90
55648;DHT22;45266;48.756;9.246;2022-11-20T05:45:41;4.60;99.90
55648;DHT22;45266;48.756;9.246;2022-11-20T05:46:43;4.60;99.90
55648;DHT22;45266;48.756;9.246;2022-11-20T05:47:45;4.60;99.90
55648;DHT22;45266;48.756;9.246;2022-11-20T05:48:47;4.60;99.90
55648;DHT22;45266;48.756;9.246;2022-11-20T05:49:48;4.60;99.90
55648;DHT22;45266;48.756;9.246;2022-11-20T05:50:50;4.60;99.90
55648;DHT22;45266;48.756;9.246;2022-11-20T05:51:52;4.70;99.90
55648;DHT22;45266;48.756;9.246;2022-11-20T05:52:54;4.70;99.90
55648;DHT22;45266;48.756;9.246;2022-11-20T05:53:57;4.70;99.90
55648;DHT22;45266;48.756;9.246;2022-11-20T05:55:00;4.80;99.90
55648;DHT22;45266;48.756;9.246;2022-11-20T05:56:07;4.70;99.90
55648;DHT22;45266;48.756;9.246;2022-11-20T05:57:09;4.70;99.90
55648;DHT22;45266;48.756;9.246;2022-11-20T05:58:11;4.70;99.90
55648;DHT22;45266;48.756;9.246;2022-11-20T05:59:13;4.70;99.90
55648;DHT22;45266;48.756;9.246;2022-11-20T06:00:15;4.70;99.90
55648;DHT22;45266;48.756;9.246;2022-11-20T06:01:22;4.70;99.90
55648;DHT22;45266;48.756;9.246;2022-11-20T06:02:24;4.90;99.90
55648;DHT22;45266;48.756;9.246;2022-11-20T06:03:26;4.80;99.90
55648;DHT22;45266;48.756;9.246;2022-11-20T06:04:28;4.80;99.90
55648;DHT22;45266;48.756;9.246;2022-11-20T06:05:30;4.70;99.90
55648;DHT22;45266;48.756;9.246;2022-11-20T06:06:32;4.80;99.90
55648;DHT22;45266;48.756;9.246;2022-11-20T06:07:34;4.80;99.90
55648;DHT22;45266;48.756;9.246;2022-11-20T06:08:36;4.80;99.90
55648;DHT22;45266;48.756;9.246;2022-11-20T06:09:38;4.80;99.90
55648;DHT22;45266;48.756;9.246;2022-11-20T06:10:39;4.80;99.90
55648;DHT22;45266;48.756;9.246;2022-11-20T06:11:41;4.80;99.90
55648;DHT22;45266;48.756;9.246;2022-11-20T06:12:43;4.80;99.90
55648;DHT22;45266;48.756;9.246;2022-11-20T06:13:46;4.80;99.90
55648;DHT22;45266;48.756;9.246;2022-11-20T06:14:48;4.80;99.90
55648;DHT22;45266;48.756;9.246;2022-11-20T06:15:51;4.90;99.90
55648;DHT22;45266;48.756;9.246;2022-11-20T06:16:53;4.90;99.90
55648;DHT22;45266;48.756;9.246;2022-11-20T06:17:55;4.90;99.90
55648;DHT22;45266;48.756;9.246;2022-11-20T06:18:57;4.90;99.90
55648;DHT22;45266;48.756;9.246;2022-11-20T06:19:59;4.80;99.90
55648;DHT22;45266;48.756;9.246;2022-11-20T06:21:05;4.90;99.90
55648;DHT22;45266;48.756;9.246;2022-11-20T06:22:08;4.90;99.90
55648;DHT22;45266;48.756;9.246;2022-11-20T06:23:09;4.90;99.90
55648;DHT22;45266;48.756;9.246;2022-11-20T06:24:11;4.90;99.90
55648;DHT22;45266;48.756;9.246;2022-11-20T06:25:13;4.90;99.90
55648;DHT22;45266;48.756;9.246;2022-11-20T06:26:17;4.90;99.90
55648;DHT22;45266;48.756;9.246;2022-11-20T06:27:19;4.90;99.90
55648;DHT22;45266;48.756;9.246;2022-11-20T06:28:21;4.90;99.90
55648;DHT22;45266;48.756;9.246;2022-11-20T06:29:23;4.90;99.90
55648;DHT22;45266;48.756;9.246;2022-11-20T06:30:30;4.90;99.90
55648;DHT22;45266;48.756;9.246;2022-11-20T06:31:32;4.90;99.90
55648;DHT22;45266;48.756;9.246;2022-11-20T06:32:39;4.90;99.90
55648;DHT22;45266;48.756;9.246;2022-11-20T06:33:41;4.90;99.90
55648;DHT22;45266;48.756;9.246;2022-11-20T06:34:43;4.90;99.90
55648;DHT22;45266;48.756;9.246;2022-11-20T06:35:45;4.90;99.90
55648;DHT22;45266;48.756;9.246;2022-11-20T06:36:47;4.90;99.90
55648;DHT22;45266;48.756;9.246;2022-11-20T06:37:49;4.90;99.90
55648;DHT22;45266;48.756;9.246;2022-11-20T06:38:51;4.90;99.90
55648;DHT22;45266;48.756;9.246;2022-11-20T06:39:53;4.90;99.90
55648;DHT22;45266;48.756;9.246;2022-11-20T06:40:55;4.90;99.90
55648;DHT22;45266;48.756;9.246;2022-11-20T06:41:56;4.90;99.90
55648;DHT22;45266;48.756;9.246;2022-11-20T06:43:00;4.90;99.90
55648;DHT22;45266;48.756;9.246;2022-11-20T06:44:04;4.90;99.90
55648;DHT22;45266;48.756;9.246;2022-11-20T06:45:07;4.90;99.90
55648;DHT22;45266;48.756;9.246;2022-11-20T06:46:11;4.90;99.90
55648;DHT22;45266;48.756;9.246;2022-11-20T06:47:13;4.90;99.90
55648;DHT22;45266;48.756;9.246;2022-11-20T06:48:14;4.90;99.90
55648;DHT22;45266;48.756;9.246;2022-11-20T06:49:17;4.90;99.90
55648;DHT22;45266;48.756;9.246;2022-11-20T06:50:18;4.90;99.90
55648;DHT22;45266;48.756;9.246;2022-11-20T06:51:20;4.90;99.90
55648;DHT22;45266;48.756;9.246;2022-11-20T06:52:22;5.00;99.90